sensor_id;sensor_type;location;lat;lon;timestamp;P1;durP1;ratioP1;P2;durP2;ratioP2
70312;SDS011;57723;51.698;5.344;2023-02-13T00:01:35;4.17;;;1.90;;
70312;SDS011;57723;51.698;5.344;2023-02-13T00:04:00;5.28;;;2.10;;
70312;SDS011;57723;51.698;5.344;2023-02-13T00:06:26;3.88;;;1.90;;
70312;SDS011;57723;51.698;5.344;2023-02-13T00:08:51;3.93;;;1.90;;
70312;SDS011;57723;51.698;5.344;2023-02-13T00:11:16;3.70;;;2.00;;
70312;SDS011;57723;51.698;5.344;2023-02-13T00:13:45;3.47;;;1.80;;
70312;SDS011;57723;51.698;5.344;2023-02-13T00:16:11;4.07;;;1.90;;
70312;SDS011;57723;51.698;5.344;2023-02-13T00:18:37;4.22;;;1.80;;
70312;SDS011;57723;51.698;5.344;2023-02-13T00:21:04;3.47;;;1.85;;
70312;SDS011;57723;51.698;5.344;2023-02-13T00:23:30;4.13;;;1.98;;
70312;SDS011;57723;51.698;5.344;2023-02-13T00:25:56;4.72;;;2.00;;
70312;SDS011;57723;51.698;5.344;2023-02-13T00:28:22;4.15;;;1.48;;
70312;SDS011;57723;51.698;5.344;2023-02-13T00:30:47;4.27;;;1.60;;
70312;SDS011;57723;51.698;5.344;2023-02-13T00:33:13;3.50;;;1.80;;
70312;SDS011;57723;51.698;5.344;2023-02-13T00:35:38;3.10;;;1.70;;
70312;SDS011;57723;51.698;5.344;2023-02-13T00:38:03;3.60;;;1.60;;
70312;SDS011;57723;51.698;5.344;2023-02-13T00:40:28;3.83;;;1.80;;
70312;SDS011;57723;51.698;5.344;2023-02-13T00:42:54;4.53;;;1.60;;
70312;SDS011;57723;51.698;5.344;2023-02-13T00:45:19;6.40;;;1.75;;
70312;SDS011;57723;51.698;5.344;2023-02-13T00:47:44;3.20;;;1.60;;
70312;SDS011;57723;51.698;5.344;2023-02-13T00:50:10;3.67;;;1.60;;
70312;SDS011;57723;51.698;5.344;2023-02-13T00:52:35;3.43;;;1.67;;
70312;SDS011;57723;51.698;5.344;2023-02-13T00:55:01;3.70;;;1.70;;
70312;SDS011;57723;51.698;5.344;2023-02-13T00:57:26;4.60;;;1.70;;
70312;SDS011;57723;51.698;5.344;2023-02-13T00:59:51;4.65;;;1.52;;
70312;SDS011;57723;51.698;5.344;2023-02-13T01:02:17;4.87;;;1.80;;
70312;SDS011;57723;51.698;5.344;2023-02-13T01:04:42;3.33;;;1.90;;
70312;SDS011;57723;51.698;5.344;2023-02-13T01:07:08;3.40;;;1.60;;
70312;SDS011;57723;51.698;5.344;2023-02-13T01:09:33;4.40;;;1.80;;
70312;SDS011;57723;51.698;5.344;2023-02-13T01:11:59;3.58;;;1.55;;
70312;SDS011;57723;51.698;5.344;2023-02-13T01:14:24;3.43;;;1.80;;
70312;SDS011;57723;51.698;5.344;2023-02-13T01:16:49;2.90;;;1.57;;
70312;SDS011;57723;51.698;5.344;2023-02-13T01:19:15;3.60;;;1.70;;
70312;SDS011;57723;51.698;5.344;2023-02-13T01:21:41;3.77;;;1.70;;
70312;SDS011;57723;51.698;5.344;2023-02-13T01:24:06;4.30;;;1.67;;
70312;SDS011;57723;51.698;5.344;2023-02-13T01:26:31;3.50;;;1.53;;
70312;SDS011;57723;51.698;5.344;2023-02-13T01:28:57;4.05;;;1.67;;
70312;SDS011;57723;51.698;5.344;2023-02-13T01:31:22;3.07;;;1.53;;
70312;SDS011;57723;51.698;5.344;2023-02-13T01:33:48;3.83;;;1.70;;
70312;SDS011;57723;51.698;5.344;2023-02-13T01:36:13;3.60;;;1.80;;
70312;SDS011;57723;51.698;5.344;2023-02-13T01:38:41;3.67;;;1.47;;
70312;SDS011;57723;51.698;5.344;2023-02-13T01:41:07;3.60;;;1.70;;
70312;SDS011;57723;51.698;5.344;2023-02-13T01:43:43;3.00;;;1.50;;
70312;SDS011;57723;51.698;5.344;2023-02-13T01:46:09;3.33;;;1.52;;
70312;SDS011;57723;51.698;5.344;2023-02-13T01:48:35;3.25;;;1.60;;
70312;SDS011;57723;51.698;5.344;2023-02-13T01:51:02;4.33;;;1.90;;
70312;SDS011;57723;51.698;5.344;2023-02-13T01:53:32;2.97;;;1.50;;
70312;SDS011;57723;51.698;5.344;2023-02-13T01:58:37;3.50;;;1.70;;
70312;SDS011;57723;51.698;5.344;2023-02-13T02:01:03;3.40;;;1.67;;
70312;SDS011;57723;51.698;5.344;2023-02-13T02:03:31;3.50;;;1.85;;
70312;SDS011;57723;51.698;5.344;2023-02-13T02:05:57;4.72;;;1.90;;
70312;SDS011;57723;51.698;5.344;2023-02-13T02:08:23;5.35;;;1.88;;
70312;SDS011;57723;51.698;5.344;2023-02-13T02:10:49;3.00;;;1.50;;
70312;SDS011;57723;51.698;5.344;2023-02-13T02:13:16;3.63;;;1.55;;
70312;SDS011;57723;51.698;5.344;2023-02-13T02:15:48;3.70;;;1.80;;
70312;SDS011;57723;51.698;5.344;2023-02-13T02:18:14;3.00;;;1.58;;
70312;SDS011;57723;51.698;5.344;2023-02-13T02:44:10;3.95;;;1.77;;
70312;SDS011;57723;51.698;5.344;2023-02-13T02:46:43;3.65;;;1.70;;
70312;SDS011;57723;51.698;5.344;2023-02-13T02:49:37;3.45;;;1.63;;
70312;SDS011;57723;51.698;5.344;2023-02-13T02:52:24;4.22;;;1.60;;
70312;SDS011;57723;51.698;5.344;2023-02-13T02:54:53;3.70;;;1.53;;
70312;SDS011;57723;51.698;5.344;2023-02-13T02:58:04;3.53;;;1.45;;
70312;SDS011;57723;51.698;5.344;2023-02-13T03:00:52;3.47;;;1.70;;
70312;SDS011;57723;51.698;5.344;2023-02-13T03:03:37;4.07;;;1.80;;
70312;SDS011;57723;51.698;5.344;2023-02-13T03:06:24;3.10;;;1.50;;
70312;SDS011;57723;51.698;5.344;2023-02-13T03:08:53;3.37;;;1.83;;
70312;SDS011;57723;51.698;5.344;2023-02-13T03:11:37;5.05;;;1.90;;
70312;SDS011;57723;51.698;5.344;2023-02-13T03:14:21;3.70;;;1.77;;
70312;SDS011;57723;51.698;5.344;2023-02-13T03:16:48;3.33;;;1.65;;
70312;SDS011;57723;51.698;5.344;2023-02-13T03:22:23;3.83;;;1.60;;
70312;SDS011;57723;51.698;5.344;2023-02-13T03:35:52;4.60;;;1.80;;
70312;SDS011;57723;51.698;5.344;2023-02-13T03:38:44;3.40;;;1.50;;
70312;SDS011;57723;51.698;5.344;2023-02-13T03:41:34;3.53;;;1.75;;
70312;SDS011;57723;51.698;5.344;2023-02-13T03:46:29;3.57;;;1.50;;
70312;SDS011;57723;51.698;5.344;2023-02-13T03:48:55;2.83;;;1.52;;
70312;SDS011;57723;51.698;5.344;2023-02-13T03:51:43;3.70;;;1.67;;
70312;SDS011;57723;51.698;5.344;2023-02-13T03:54:15;3.33;;;1.60;;
70312;SDS011;57723;51.698;5.344;2023-02-13T03:56:42;3.08;;;1.50;;
70312;SDS011;57723;51.698;5.344;2023-02-13T03:59:28;3.58;;;1.50;;
70312;SDS011;57723;51.698;5.344;2023-02-13T04:04:53;3.93;;;1.57;;
70312;SDS011;57723;51.698;5.344;2023-02-13T04:07:12;3.67;;;1.55;;
70312;SDS011;57723;51.698;5.344;2023-02-13T04:09:53;3.93;;;1.70;;
70312;SDS011;57723;51.698;5.344;2023-02-13T04:12:29;3.75;;;1.90;;
70312;SDS011;57723;51.698;5.344;2023-02-13T04:15:03;3.00;;;1.40;;
70312;SDS011;57723;51.698;5.344;2023-02-13T04:17:32;3.90;;;1.50;;
70312;SDS011;57723;51.698;5.344;2023-02-13T04:20:00;3.53;;;1.52;;
70312;SDS011;57723;51.698;5.344;2023-02-13T04:22:25;3.53;;;1.67;;
70312;SDS011;57723;51.698;5.344;2023-02-13T04:24:51;3.17;;;1.60;;
70312;SDS011;57723;51.698;5.344;2023-02-13T04:27:16;3.83;;;1.67;;
70312;SDS011;57723;51.698;5.344;2023-02-13T04:29:45;3.38;;;1.63;;
70312;SDS011;57723;51.698;5.344;2023-02-13T04:32:10;3.15;;;1.38;;
70312;SDS011;57723;51.698;5.344;2023-02-13T04:34:36;3.33;;;1.83;;
70312;SDS011;57723;51.698;5.344;2023-02-13T04:37:01;3.50;;;1.67;;
70312;SDS011;57723;51.698;5.344;2023-02-13T04:39:26;4.60;;;1.60;;
70312;SDS011;57723;51.698;5.344;2023-02-13T04:41:52;4.40;;;1.70;;
70312;SDS011;57723;51.698;5.344;2023-02-13T04:44:17;3.67;;;1.50;;
70312;SDS011;57723;51.698;5.344;2023-02-13T04:46:42;3.63;;;1.60;;
70312;SDS011;57723;51.698;5.344;2023-02-13T04:49:11;3.53;;;1.40;;
70312;SDS011;57723;51.698;5.344;2023-02-13T04:51:36;3.17;;;1.53;;
70312;SDS011;57723;51.698;5.344;2023-02-13T04:54:02;3.47;;;1.70;;
70312;SDS011;57723;51.698;5.344;2023-02-13T04:56:27;3.38;;;1.50;;
70312;SDS011;57723;51.698;5.344;2023-02-13T04:58:53;4.00;;;1.88;;
70312;SDS011;57723;51.698;5.344;2023-02-13T05:01:19;3.40;;;1.73;;
70312;SDS011;57723;51.698;5.344;2023-02-13T05:03:45;2.53;;;1.38;;
70312;SDS011;57723;51.698;5.344;2023-02-13T05:06:10;2.97;;;1.47;;
70312;SDS011;57723;51.698;5.344;2023-02-13T05:08:36;3.50;;;1.70;;
70312;SDS011;57723;51.698;5.344;2023-02-13T05:11:01;3.23;;;1.80;;
70312;SDS011;57723;51.698;5.344;2023-02-13T05:13:26;3.17;;;1.70;;
70312;SDS011;57723;51.698;5.344;2023-02-13T05:15:52;3.43;;;1.60;;
70312;SDS011;57723;51.698;5.344;2023-02-13T05:18:17;3.35;;;1.85;;
70312;SDS011;57723;51.698;5.344;2023-02-13T05:20:43;3.30;;;1.47;;
70312;SDS011;57723;51.698;5.344;2023-02-13T05:23:12;3.90;;;1.80;;
70312;SDS011;57723;51.698;5.344;2023-02-13T05:25:46;3.03;;;1.52;;
70312;SDS011;57723;51.698;5.344;2023-02-13T05:28:11;3.33;;;1.80;;
70312;SDS011;57723;51.698;5.344;2023-02-13T05:30:55;4.28;;;1.65;;
70312;SDS011;57723;51.698;5.344;2023-02-13T05:33:21;3.63;;;1.60;;
70312;SDS011;57723;51.698;5.344;2023-02-13T05:35:46;3.15;;;1.60;;
70312;SDS011;57723;51.698;5.344;2023-02-13T05:38:12;3.73;;;1.70;;
70312;SDS011;57723;51.698;5.344;2023-02-13T05:40:37;3.50;;;1.80;;
70312;SDS011;57723;51.698;5.344;2023-02-13T05:43:02;2.97;;;1.60;;
70312;SDS011;57723;51.698;5.344;2023-02-13T05:45:28;3.30;;;1.63;;
70312;SDS011;57723;51.698;5.344;2023-02-13T05:47:53;3.70;;;1.77;;
70312;SDS011;57723;51.698;5.344;2023-02-13T05:50:21;3.08;;;1.50;;
70312;SDS011;57723;51.698;5.344;2023-02-13T05:52:49;4.00;;;1.57;;
70312;SDS011;57723;51.698;5.344;2023-02-13T05:55:14;3.20;;;1.67;;
70312;SDS011;57723;51.698;5.344;2023-02-13T05:57:40;3.50;;;1.80;;
70312;SDS011;57723;51.698;5.344;2023-02-13T06:00:05;3.47;;;1.70;;
70312;SDS011;57723;51.698;5.344;2023-02-13T06:02:31;3.38;;;1.55;;
70312;SDS011;57723;51.698;5.344;2023-02-13T06:04:56;2.40;;;1.37;;
70312;SDS011;57723;51.698;5.344;2023-02-13T06:07:21;3.73;;;2.07;;
70312;SDS011;57723;51.698;5.344;2023-02-13T06:09:47;4.67;;;3.00;;
70312;SDS011;57723;51.698;5.344;2023-02-13T06:12:12;6.60;;;5.97;;
70312;SDS011;57723;51.698;5.344;2023-02-13T06:14:37;13.00;;;12.10;;
70312;SDS011;57723;51.698;5.344;2023-02-13T06:17:21;21.30;;;19.50;;
70312;SDS011;57723;51.698;5.344;2023-02-13T06:19:47;27.05;;;25.15;;
70312;SDS011;57723;51.698;5.344;2023-02-13T06:22:12;31.30;;;29.20;;
70312;SDS011;57723;51.698;5.344;2023-02-13T06:24:37;30.77;;;28.33;;
70312;SDS011;57723;51.698;5.344;2023-02-13T06:27:03;32.00;;;29.80;;
70312;SDS011;57723;51.698;5.344;2023-02-13T06:29:28;32.87;;;30.80;;
70312;SDS011;57723;51.698;5.344;2023-02-13T06:31:55;36.28;;;33.28;;
70312;SDS011;57723;51.698;5.344;2023-02-13T06:34:21;34.60;;;32.15;;
70312;SDS011;57723;51.698;5.344;2023-02-13T06:36:49;35.35;;;32.92;;
70312;SDS011;57723;51.698;5.344;2023-02-13T06:39:15;34.03;;;31.85;;
70312;SDS011;57723;51.698;5.344;2023-02-13T06:41:43;39.28;;;36.60;;
70312;SDS011;57723;51.698;5.344;2023-02-13T06:44:08;39.60;;;36.85;;
70312;SDS011;57723;51.698;5.344;2023-02-13T06:46:34;39.38;;;36.67;;
70312;SDS011;57723;51.698;5.344;2023-02-13T06:49:00;39.80;;;36.60;;
70312;SDS011;57723;51.698;5.344;2023-02-13T06:51:25;38.90;;;35.95;;
70312;SDS011;57723;51.698;5.344;2023-02-13T06:53:51;40.33;;;37.63;;
70312;SDS011;57723;51.698;5.344;2023-02-13T06:56:16;39.07;;;36.50;;
70312;SDS011;57723;51.698;5.344;2023-02-13T06:58:41;5.90;;;2.90;;
70312;SDS011;57723;51.698;5.344;2023-02-13T07:01:13;7.57;;;1.80;;
70312;SDS011;57723;51.698;5.344;2023-02-13T07:03:40;9.32;;;1.75;;
70312;SDS011;57723;51.698;5.344;2023-02-13T07:06:06;5.73;;;1.70;;
70312;SDS011;57723;51.698;5.344;2023-02-13T07:08:32;4.07;;;1.95;;
70312;SDS011;57723;51.698;5.344;2023-02-13T07:10:58;5.33;;;1.60;;
70312;SDS011;57723;51.698;5.344;2023-02-13T07:13:23;7.43;;;1.80;;
70312;SDS011;57723;51.698;5.344;2023-02-13T07:15:49;7.47;;;2.00;;
70312;SDS011;57723;51.698;5.344;2023-02-13T07:18:14;6.87;;;2.00;;
70312;SDS011;57723;51.698;5.344;2023-02-13T07:20:39;3.80;;;1.87;;
70312;SDS011;57723;51.698;5.344;2023-02-13T07:23:05;4.87;;;2.00;;
70312;SDS011;57723;51.698;5.344;2023-02-13T07:25:31;5.55;;;1.73;;
70312;SDS011;57723;51.698;5.344;2023-02-13T07:28:01;8.63;;;1.80;;
70312;SDS011;57723;51.698;5.344;2023-02-13T07:30:27;4.57;;;1.90;;
70312;SDS011;57723;51.698;5.344;2023-02-13T07:32:53;4.72;;;1.80;;
70312;SDS011;57723;51.698;5.344;2023-02-13T07:35:21;6.25;;;1.80;;
70312;SDS011;57723;51.698;5.344;2023-02-13T07:37:48;3.97;;;1.77;;
70312;SDS011;57723;51.698;5.344;2023-02-13T07:40:13;4.70;;;1.60;;
70312;SDS011;57723;51.698;5.344;2023-02-13T07:42:39;4.33;;;1.77;;
70312;SDS011;57723;51.698;5.344;2023-02-13T07:45:04;3.53;;;2.00;;
70312;SDS011;57723;51.698;5.344;2023-02-13T07:47:32;7.35;;;1.85;;
70312;SDS011;57723;51.698;5.344;2023-02-13T07:49:57;4.47;;;1.80;;
70312;SDS011;57723;51.698;5.344;2023-02-13T07:52:23;4.38;;;2.10;;
70312;SDS011;57723;51.698;5.344;2023-02-13T07:54:48;4.83;;;2.00;;
70312;SDS011;57723;51.698;5.344;2023-02-13T07:57:14;4.70;;;2.23;;
70312;SDS011;57723;51.698;5.344;2023-02-13T07:59:40;3.58;;;1.60;;
70312;SDS011;57723;51.698;5.344;2023-02-13T08:02:07;4.03;;;1.70;;
70312;SDS011;57723;51.698;5.344;2023-02-13T08:04:34;5.75;;;1.88;;
70312;SDS011;57723;51.698;5.344;2023-02-13T08:07:00;4.17;;;2.03;;
70312;SDS011;57723;51.698;5.344;2023-02-13T08:09:25;3.73;;;1.90;;
70312;SDS011;57723;51.698;5.344;2023-02-13T08:12:09;3.85;;;1.85;;
70312;SDS011;57723;51.698;5.344;2023-02-13T08:14:35;4.75;;;1.98;;
70312;SDS011;57723;51.698;5.344;2023-02-13T08:17:00;3.67;;;1.80;;
70312;SDS011;57723;51.698;5.344;2023-02-13T08:19:27;4.22;;;1.90;;
70312;SDS011;57723;51.698;5.344;2023-02-13T08:21:55;4.40;;;1.77;;
70312;SDS011;57723;51.698;5.344;2023-02-13T08:24:23;4.18;;;1.98;;
70312;SDS011;57723;51.698;5.344;2023-02-13T08:26:51;3.92;;;1.90;;
70312;SDS011;57723;51.698;5.344;2023-02-13T08:29:16;4.18;;;1.80;;
70312;SDS011;57723;51.698;5.344;2023-02-13T08:31:42;5.32;;;2.00;;
70312;SDS011;57723;51.698;5.344;2023-02-13T08:34:10;9.02;;;2.17;;
70312;SDS011;57723;51.698;5.344;2023-02-13T08:36:36;4.70;;;1.93;;
70312;SDS011;57723;51.698;5.344;2023-02-13T08:39:01;4.33;;;1.70;;
70312;SDS011;57723;51.698;5.344;2023-02-13T08:41:26;4.63;;;2.00;;
70312;SDS011;57723;51.698;5.344;2023-02-13T08:43:52;3.97;;;1.87;;
70312;SDS011;57723;51.698;5.344;2023-02-13T08:46:18;4.60;;;1.90;;
70312;SDS011;57723;51.698;5.344;2023-02-13T08:48:43;7.27;;;2.00;;
70312;SDS011;57723;51.698;5.344;2023-02-13T08:51:09;3.93;;;1.70;;
70312;SDS011;57723;51.698;5.344;2023-02-13T08:53:35;3.35;;;1.77;;
70312;SDS011;57723;51.698;5.344;2023-02-13T08:56:00;3.40;;;1.67;;
70312;SDS011;57723;51.698;5.344;2023-02-13T08:58:27;3.60;;;1.60;;
70312;SDS011;57723;51.698;5.344;2023-02-13T09:00:55;3.28;;;1.63;;
70312;SDS011;57723;51.698;5.344;2023-02-13T09:03:20;3.80;;;1.77;;
70312;SDS011;57723;51.698;5.344;2023-02-13T09:05:46;3.23;;;1.67;;
70312;SDS011;57723;51.698;5.344;2023-02-13T09:08:11;4.90;;;2.08;;
70312;SDS011;57723;51.698;5.344;2023-02-13T09:10:37;3.10;;;1.60;;
70312;SDS011;57723;51.698;5.344;2023-02-13T09:13:03;4.70;;;2.17;;
70312;SDS011;57723;51.698;5.344;2023-02-13T09:15:30;5.37;;;1.97;;
70312;SDS011;57723;51.698;5.344;2023-02-13T09:17:55;5.05;;;2.10;;
70312;SDS011;57723;51.698;5.344;2023-02-13T09:20:21;4.78;;;2.03;;
70312;SDS011;57723;51.698;5.344;2023-02-13T09:22:46;3.77;;;2.00;;
70312;SDS011;57723;51.698;5.344;2023-02-13T09:25:12;4.67;;;2.00;;
70312;SDS011;57723;51.698;5.344;2023-02-13T09:27:37;3.70;;;1.87;;
70312;SDS011;57723;51.698;5.344;2023-02-13T09:30:04;4.20;;;1.75;;
70312;SDS011;57723;51.698;5.344;2023-02-13T09:32:30;3.65;;;1.77;;
70312;SDS011;57723;51.698;5.344;2023-02-13T09:34:55;4.07;;;1.90;;
70312;SDS011;57723;51.698;5.344;2023-02-13T09:37:20;4.60;;;1.80;;
70312;SDS011;57723;51.698;5.344;2023-02-13T09:39:50;4.25;;;1.95;;
70312;SDS011;57723;51.698;5.344;2023-02-13T09:42:23;5.10;;;2.10;;
70312;SDS011;57723;51.698;5.344;2023-02-13T09:44:52;3.80;;;2.10;;
70312;SDS011;57723;51.698;5.344;2023-02-13T09:49:48;3.88;;;1.83;;
70312;SDS011;57723;51.698;5.344;2023-02-13T09:52:14;4.88;;;1.88;;
70312;SDS011;57723;51.698;5.344;2023-02-13T09:54:40;5.03;;;2.10;;
70312;SDS011;57723;51.698;5.344;2023-02-13T09:57:07;4.07;;;1.95;;
70312;SDS011;57723;51.698;5.344;2023-02-13T09:59:52;3.90;;;1.98;;
70312;SDS011;57723;51.698;5.344;2023-02-13T10:02:32;3.97;;;1.80;;
70312;SDS011;57723;51.698;5.344;2023-02-13T10:12:36;3.80;;;1.85;;
70312;SDS011;57723;51.698;5.344;2023-02-13T10:17:49;3.83;;;1.98;;
70312;SDS011;57723;51.698;5.344;2023-02-13T10:22:57;4.38;;;2.05;;
70312;SDS011;57723;51.698;5.344;2023-02-13T10:25:24;4.90;;;1.92;;
70312;SDS011;57723;51.698;5.344;2023-02-13T10:28:04;4.57;;;1.75;;
70312;SDS011;57723;51.698;5.344;2023-02-13T10:30:32;4.18;;;1.92;;
70312;SDS011;57723;51.698;5.344;2023-02-13T10:33:03;3.95;;;1.67;;
70312;SDS011;57723;51.698;5.344;2023-02-13T10:35:51;3.83;;;2.10;;
70312;SDS011;57723;51.698;5.344;2023-02-13T10:38:18;3.83;;;1.90;;
70312;SDS011;57723;51.698;5.344;2023-02-13T10:40:53;3.22;;;1.70;;
70312;SDS011;57723;51.698;5.344;2023-02-13T10:43:25;3.05;;;1.73;;
70312;SDS011;57723;51.698;5.344;2023-02-13T10:45:56;4.00;;;2.10;;
70312;SDS011;57723;51.698;5.344;2023-02-13T10:48:46;4.47;;;1.85;;
70312;SDS011;57723;51.698;5.344;2023-02-13T10:51:23;3.47;;;1.67;;
70312;SDS011;57723;51.698;5.344;2023-02-13T10:59:05;3.33;;;1.90;;
70312;SDS011;57723;51.698;5.344;2023-02-13T11:01:38;4.32;;;1.75;;
70312;SDS011;57723;51.698;5.344;2023-02-13T11:04:07;4.18;;;1.83;;
70312;SDS011;57723;51.698;5.344;2023-02-13T11:06:37;3.10;;;1.58;;
70312;SDS011;57723;51.698;5.344;2023-02-13T11:09:05;4.75;;;1.67;;
70312;SDS011;57723;51.698;5.344;2023-02-13T11:11:38;4.63;;;1.90;;
70312;SDS011;57723;51.698;5.344;2023-02-13T11:17:05;3.70;;;1.85;;
70312;SDS011;57723;51.698;5.344;2023-02-13T11:19:53;3.13;;;1.67;;
70312;SDS011;57723;51.698;5.344;2023-02-13T11:25:24;3.30;;;1.63;;
70312;SDS011;57723;51.698;5.344;2023-02-13T11:27:51;2.75;;;1.52;;
70312;SDS011;57723;51.698;5.344;2023-02-13T11:32:54;3.53;;;1.77;;
70312;SDS011;57723;51.698;5.344;2023-02-13T11:35:25;4.93;;;1.90;;
70312;SDS011;57723;51.698;5.344;2023-02-13T11:38:04;2.95;;;1.58;;
70312;SDS011;57723;51.698;5.344;2023-02-13T11:40:35;3.35;;;1.70;;
70312;SDS011;57723;51.698;5.344;2023-02-13T11:43:00;3.53;;;1.60;;
70312;SDS011;57723;51.698;5.344;2023-02-13T11:45:29;2.92;;;1.35;;
70312;SDS011;57723;51.698;5.344;2023-02-13T11:47:54;3.63;;;1.70;;
70312;SDS011;57723;51.698;5.344;2023-02-13T11:50:24;3.17;;;1.42;;
70312;SDS011;57723;51.698;5.344;2023-02-13T11:53:01;3.65;;;1.90;;
70312;SDS011;57723;51.698;5.344;2023-02-13T11:58:20;3.38;;;1.67;;
70312;SDS011;57723;51.698;5.344;2023-02-13T12:00:47;3.25;;;1.60;;
70312;SDS011;57723;51.698;5.344;2023-02-13T12:05:55;3.03;;;1.60;;
70312;SDS011;57723;51.698;5.344;2023-02-13T12:08:23;3.28;;;1.70;;
70312;SDS011;57723;51.698;5.344;2023-02-13T12:10:49;3.43;;;1.67;;
70312;SDS011;57723;51.698;5.344;2023-02-13T12:13:24;2.78;;;1.40;;
70312;SDS011;57723;51.698;5.344;2023-02-13T12:15:57;3.95;;;1.58;;
70312;SDS011;57723;51.698;5.344;2023-02-13T12:18:34;3.53;;;1.60;;
70312;SDS011;57723;51.698;5.344;2023-02-13T12:28:45;3.30;;;1.55;;
70312;SDS011;57723;51.698;5.344;2023-02-13T12:31:24;2.97;;;1.45;;
70312;SDS011;57723;51.698;5.344;2023-02-13T12:34:00;4.05;;;1.70;;
70312;SDS011;57723;51.698;5.344;2023-02-13T12:57:18;3.30;;;1.50;;
70312;SDS011;57723;51.698;5.344;2023-02-13T12:59:57;3.25;;;1.50;;
70312;SDS011;57723;51.698;5.344;2023-02-13T13:05:25;2.58;;;1.40;;
70312;SDS011;57723;51.698;5.344;2023-02-13T13:13:36;3.15;;;1.30;;
70312;SDS011;57723;51.698;5.344;2023-02-13T13:18:38;3.30;;;1.40;;
70312;SDS011;57723;51.698;5.344;2023-02-13T13:28:46;2.97;;;1.40;;
70312;SDS011;57723;51.698;5.344;2023-02-13T13:31:12;2.30;;;1.30;;
70312;SDS011;57723;51.698;5.344;2023-02-13T13:33:39;2.37;;;1.23;;
70312;SDS011;57723;51.698;5.344;2023-02-13T13:46:58;2.63;;;1.08;;
70312;SDS011;57723;51.698;5.344;2023-02-13T13:54:56;2.88;;;1.27;;
70312;SDS011;57723;51.698;5.344;2023-02-13T13:57:25;3.35;;;1.45;;
70312;SDS011;57723;51.698;5.344;2023-02-13T13:59:55;3.00;;;1.20;;
70312;SDS011;57723;51.698;5.344;2023-02-13T14:07:21;2.23;;;1.27;;
70312;SDS011;57723;51.698;5.344;2023-02-13T14:09:47;1.63;;;1.05;;
70312;SDS011;57723;51.698;5.344;2023-02-13T14:14:59;2.35;;;1.17;;
70312;SDS011;57723;51.698;5.344;2023-02-13T14:22:53;3.05;;;1.55;;
70312;SDS011;57723;51.698;5.344;2023-02-13T14:25:25;3.10;;;1.30;;
70312;SDS011;57723;51.698;5.344;2023-02-13T14:28:00;2.88;;;1.40;;
70312;SDS011;57723;51.698;5.344;2023-02-13T14:30:27;2.63;;;1.30;;
70312;SDS011;57723;51.698;5.344;2023-02-13T14:32:54;3.03;;;1.50;;
70312;SDS011;57723;51.698;5.344;2023-02-13T14:35:27;3.88;;;1.60;;
70312;SDS011;57723;51.698;5.344;2023-02-13T14:37:54;3.60;;;1.40;;
70312;SDS011;57723;51.698;5.344;2023-02-13T14:40:45;3.05;;;1.30;;
70312;SDS011;57723;51.698;5.344;2023-02-13T14:43:31;2.38;;;1.25;;
70312;SDS011;57723;51.698;5.344;2023-02-13T14:49:00;2.60;;;1.40;;
70312;SDS011;57723;51.698;5.344;2023-02-13T14:54:00;3.15;;;1.35;;
70312;SDS011;57723;51.698;5.344;2023-02-13T14:56:27;2.85;;;1.38;;
70312;SDS011;57723;51.698;5.344;2023-02-13T14:59:04;2.28;;;1.10;;
70312;SDS011;57723;51.698;5.344;2023-02-13T15:01:32;2.40;;;1.23;;
70312;SDS011;57723;51.698;5.344;2023-02-13T15:04:01;3.60;;;1.20;;
70312;SDS011;57723;51.698;5.344;2023-02-13T15:06:30;2.45;;;1.33;;
70312;SDS011;57723;51.698;5.344;2023-02-13T15:08:58;2.88;;;1.25;;
70312;SDS011;57723;51.698;5.344;2023-02-13T15:14:23;3.08;;;1.48;;
70312;SDS011;57723;51.698;5.344;2023-02-13T15:17:04;2.70;;;1.35;;
70312;SDS011;57723;51.698;5.344;2023-02-13T15:19:30;2.63;;;1.10;;
70312;SDS011;57723;51.698;5.344;2023-02-13T15:22:00;3.25;;;1.08;;
70312;SDS011;57723;51.698;5.344;2023-02-13T15:24:34;1.92;;;1.13;;
70312;SDS011;57723;51.698;5.344;2023-02-13T15:27:02;2.42;;;1.30;;
70312;SDS011;57723;51.698;5.344;2023-02-13T15:29:28;3.40;;;1.10;;
70312;SDS011;57723;51.698;5.344;2023-02-13T15:31:54;2.50;;;1.25;;
70312;SDS011;57723;51.698;5.344;2023-02-13T15:34:22;2.67;;;1.10;;
70312;SDS011;57723;51.698;5.344;2023-02-13T15:36:51;3.35;;;1.30;;
70312;SDS011;57723;51.698;5.344;2023-02-13T15:39:19;2.88;;;1.40;;
70312;SDS011;57723;51.698;5.344;2023-02-13T15:41:46;2.45;;;1.23;;
70312;SDS011;57723;51.698;5.344;2023-02-13T15:44:22;2.08;;;1.10;;
70312;SDS011;57723;51.698;5.344;2023-02-13T15:46:49;2.72;;;1.20;;
70312;SDS011;57723;51.698;5.344;2023-02-13T15:49:18;2.75;;;1.40;;
70312;SDS011;57723;51.698;5.344;2023-02-13T15:51:44;3.83;;;1.58;;
70312;SDS011;57723;51.698;5.344;2023-02-13T15:56:45;1.95;;;1.00;;
70312;SDS011;57723;51.698;5.344;2023-02-13T15:59:11;2.90;;;1.47;;
70312;SDS011;57723;51.698;5.344;2023-02-13T16:01:37;2.80;;;1.17;;
70312;SDS011;57723;51.698;5.344;2023-02-13T16:04:04;2.38;;;1.30;;
70312;SDS011;57723;51.698;5.344;2023-02-13T16:06:30;1.88;;;1.17;;
70312;SDS011;57723;51.698;5.344;2023-02-13T16:08:58;2.95;;;1.27;;
70312;SDS011;57723;51.698;5.344;2023-02-13T16:16:43;2.63;;;1.23;;
70312;SDS011;57723;51.698;5.344;2023-02-13T16:21:54;1.73;;;1.00;;
70312;SDS011;57723;51.698;5.344;2023-02-13T16:24:20;2.38;;;1.10;;
70312;SDS011;57723;51.698;5.344;2023-02-13T16:26:46;4.15;;;2.17;;
70312;SDS011;57723;51.698;5.344;2023-02-13T16:29:20;4.70;;;2.50;;
70312;SDS011;57723;51.698;5.344;2023-02-13T16:31:46;3.63;;;1.70;;
70312;SDS011;57723;51.698;5.344;2023-02-13T16:34:14;3.53;;;1.90;;
70312;SDS011;57723;51.698;5.344;2023-02-13T16:36:39;7.28;;;2.50;;
70312;SDS011;57723;51.698;5.344;2023-02-13T16:39:14;2.90;;;1.50;;
70312;SDS011;57723;51.698;5.344;2023-02-13T16:41:41;2.80;;;1.50;;
70312;SDS011;57723;51.698;5.344;2023-02-13T16:44:20;2.67;;;1.40;;
70312;SDS011;57723;51.698;5.344;2023-02-13T16:46:49;3.33;;;1.42;;
70312;SDS011;57723;51.698;5.344;2023-02-13T16:49:16;1.70;;;1.05;;
70312;SDS011;57723;51.698;5.344;2023-02-13T16:54:22;1.80;;;1.00;;
70312;SDS011;57723;51.698;5.344;2023-02-13T16:56:52;1.88;;;1.10;;
70312;SDS011;57723;51.698;5.344;2023-02-13T16:59:37;2.67;;;1.35;;
70312;SDS011;57723;51.698;5.344;2023-02-13T17:07:16;2.08;;;1.00;;
70312;SDS011;57723;51.698;5.344;2023-02-13T17:09:41;2.10;;;1.10;;
70312;SDS011;57723;51.698;5.344;2023-02-13T17:12:15;1.73;;;1.13;;
70312;SDS011;57723;51.698;5.344;2023-02-13T17:14:42;2.22;;;1.10;;
70312;SDS011;57723;51.698;5.344;2023-02-13T17:17:11;2.03;;;1.00;;
70312;SDS011;57723;51.698;5.344;2023-02-13T17:19:36;1.08;;;0.77;;
70312;SDS011;57723;51.698;5.344;2023-02-13T17:22:02;3.07;;;1.10;;
70312;SDS011;57723;51.698;5.344;2023-02-13T17:24:31;2.65;;;1.10;;
70312;SDS011;57723;51.698;5.344;2023-02-13T17:26:56;2.27;;;1.10;;
70312;SDS011;57723;51.698;5.344;2023-02-13T17:29:21;2.80;;;1.20;;
70312;SDS011;57723;51.698;5.344;2023-02-13T17:31:49;1.30;;;1.00;;
70312;SDS011;57723;51.698;5.344;2023-02-13T17:34:15;1.70;;;1.08;;
70312;SDS011;57723;51.698;5.344;2023-02-13T17:36:41;1.93;;;1.13;;
70312;SDS011;57723;51.698;5.344;2023-02-13T17:39:06;1.77;;;1.20;;
70312;SDS011;57723;51.698;5.344;2023-02-13T17:41:33;2.10;;;1.05;;
70312;SDS011;57723;51.698;5.344;2023-02-13T17:43:58;2.23;;;1.00;;
70312;SDS011;57723;51.698;5.344;2023-02-13T17:46:23;3.20;;;1.10;;
70312;SDS011;57723;51.698;5.344;2023-02-13T17:48:49;1.80;;;0.90;;
70312;SDS011;57723;51.698;5.344;2023-02-13T17:51:14;2.17;;;1.20;;
70312;SDS011;57723;51.698;5.344;2023-02-13T17:53:40;1.90;;;1.00;;
70312;SDS011;57723;51.698;5.344;2023-02-13T17:56:05;3.57;;;1.30;;
70312;SDS011;57723;51.698;5.344;2023-02-13T17:58:30;3.30;;;1.30;;